createdAt,value
2019-04-29T00:02:36.279Z,3.20
2019-04-29T00:05:08.941Z,2.90
2019-04-29T00:07:40.565Z,3.10
2019-04-29T00:10:15.871Z,3.30
2019-04-29T00:12:47.286Z,3.30
2019-04-29T00:15:36.831Z,3.30
2019-04-29T00:18:13.818Z,3.00
2019-04-29T00:20:48.625Z,3.27
2019-04-29T00:23:19.991Z,3.30
2019-04-29T00:25:51.864Z,3.27
2019-04-29T00:28:23.362Z,3.27
2019-04-29T00:30:54.832Z,3.10
2019-04-29T00:33:26.372Z,3.33
2019-04-29T00:35:57.613Z,3.00
2019-04-29T00:38:51.022Z,3.10
2019-04-29T00:41:44.471Z,3.10
2019-04-29T00:44:17.936Z,2.73
2019-04-29T00:46:49.545Z,2.97
2019-04-29T00:49:20.984Z,3.23
2019-04-29T00:51:52.337Z,3.40
2019-04-29T00:54:32.658Z,3.27
2019-04-29T00:57:04.085Z,2.90
2019-04-29T00:59:35.362Z,3.10
2019-04-29T01:02:08.797Z,3.27
2019-04-29T01:04:40.224Z,3.17
2019-04-29T01:07:11.735Z,3.30
2019-04-29T01:09:43.312Z,3.00
2019-04-29T01:12:14.931Z,3.17
2019-04-29T01:14:46.293Z,3.27
2019-04-29T01:17:17.803Z,3.00
2019-04-29T01:19:49.238Z,2.90
2019-04-29T01:22:21.143Z,3.03
2019-04-29T01:24:52.965Z,3.13
2019-04-29T01:27:29.076Z,3.00
2019-04-29T01:30:00.466Z,3.00
2019-04-29T01:32:31.831Z,3.03
2019-04-29T01:35:03.141Z,2.93
2019-04-29T01:37:39.651Z,3.57
2019-04-29T01:40:33.273Z,3.20
2019-04-29T01:43:04.676Z,3.10
2019-04-29T01:45:36.607Z,3.23
2019-04-29T01:48:08.380Z,3.40
2019-04-29T01:50:39.818Z,3.20
2019-04-29T01:53:11.095Z,3.43
2019-04-29T01:55:42.553Z,3.50
2019-04-29T01:58:15.177Z,3.40
2019-04-29T02:00:46.583Z,3.13
2019-04-29T02:03:17.784Z,3.17
2019-04-29T02:05:49.333Z,3.20
2019-04-29T02:08:20.809Z,3.50
2019-04-29T02:10:52.342Z,3.53
2019-04-29T02:13:23.607Z,2.93
2019-04-29T02:15:54.890Z,3.23
2019-04-29T02:18:26.513Z,3.27
2019-04-29T02:20:57.850Z,3.50
2019-04-29T02:23:40.601Z,4.00
2019-04-29T02:26:11.889Z,3.83
2019-04-29T02:28:43.483Z,3.67
2019-04-29T02:31:33.082Z,3.77
2019-04-29T02:34:04.471Z,3.50
2019-04-29T02:36:35.978Z,3.50
2019-04-29T02:39:33.037Z,3.47
2019-04-29T02:42:26.917Z,3.40
2019-04-29T02:45:02.873Z,3.57
2019-04-29T02:47:35.283Z,4.07
2019-04-29T02:50:07.380Z,3.60
2019-04-29T02:52:39.070Z,3.57
2019-04-29T02:55:12.428Z,3.20
2019-04-29T02:58:02.818Z,3.80
2019-04-29T03:00:59.400Z,3.60
2019-04-29T03:03:48.069Z,3.97
2019-04-29T03:06:19.604Z,4.20
2019-04-29T03:08:51.057Z,4.27
2019-04-29T03:11:23.567Z,3.87
2019-04-29T03:13:54.893Z,4.00
2019-04-29T03:16:26.298Z,4.07
2019-04-29T03:19:01.884Z,4.30
2019-04-29T03:21:41.545Z,4.20
2019-04-29T03:24:12.821Z,4.20
2019-04-29T03:26:44.277Z,4.60
2019-04-29T03:29:25.014Z,4.13
2019-04-29T03:31:57.939Z,4.20
2019-04-29T03:34:29.424Z,3.93
2019-04-29T03:37:00.885Z,4.40
2019-04-29T03:39:32.463Z,4.80
2019-04-29T03:42:07.193Z,4.90
2019-04-29T03:44:36.888Z,4.40
2019-04-29T03:47:08.119Z,4.67
2019-04-29T03:49:40.788Z,5.13
2019-04-29T03:52:12.474Z,4.97
2019-04-29T03:54:43.996Z,5.03
2019-04-29T03:57:16.828Z,4.30
2019-04-29T03:59:48.154Z,4.83
2019-04-29T04:02:50.372Z,4.73
2019-04-29T04:05:30.358Z,5.00
2019-04-29T04:08:09.968Z,5.00
2019-04-29T04:10:41.138Z,4.87
2019-04-29T04:13:12.413Z,4.70
2019-04-29T04:15:43.779Z,5.00
2019-04-29T04:18:28.941Z,4.87
2019-04-29T04:21:00.339Z,4.67
2019-04-29T04:23:31.874Z,4.43
2019-04-29T04:26:03.163Z,5.60
2019-04-29T04:28:34.829Z,4.80
2019-04-29T04:31:07.223Z,4.70
2019-04-29T04:33:38.809Z,4.73
2019-04-29T04:36:09.983Z,5.67
2019-04-29T04:38:41.227Z,5.17
2019-04-29T04:41:12.482Z,4.60
2019-04-29T04:43:43.924Z,5.13
2019-04-29T04:46:15.166Z,4.87
2019-04-29T04:48:46.410Z,4.73
2019-04-29T04:51:18.409Z,4.63
2019-04-29T04:53:49.776Z,4.80
2019-04-29T04:56:21.031Z,5.23
2019-04-29T04:58:52.909Z,4.90
2019-04-29T05:01:24.086Z,5.17
2019-04-29T05:03:55.565Z,5.10
2019-04-29T05:06:26.912Z,4.47
2019-04-29T05:08:58.395Z,5.03
2019-04-29T05:11:29.712Z,4.67
2019-04-29T05:14:00.904Z,4.87
2019-04-29T05:16:32.172Z,5.30
2019-04-29T05:19:03.446Z,6.00
2019-04-29T05:21:34.758Z,5.00
2019-04-29T05:24:06.386Z,5.20
2019-04-29T05:26:38.431Z,5.43
2019-04-29T05:29:09.978Z,4.80
2019-04-29T05:31:41.303Z,4.80
2019-04-29T05:34:13.393Z,5.07
2019-04-29T05:37:06.854Z,4.67
2019-04-29T05:39:40.464Z,4.47
2019-04-29T05:42:16.093Z,4.70
2019-04-29T05:45:06.520Z,5.07
2019-04-29T05:47:40.586Z,5.93
2019-04-29T05:50:33.720Z,5.20
2019-04-29T05:53:23.894Z,4.63
2019-04-29T05:55:55.335Z,4.80
2019-04-29T05:58:26.727Z,4.60
2019-04-29T06:01:02.368Z,4.80
2019-04-29T06:03:37.847Z,4.70
2019-04-29T06:06:07.104Z,5.80
2019-04-29T06:08:39.015Z,5.87
2019-04-29T06:11:11.053Z,5.57
2019-04-29T06:13:42.291Z,4.93
2019-04-29T06:16:20.612Z,5.00
2019-04-29T06:18:49.677Z,5.20
2019-04-29T06:21:21.259Z,4.87
2019-04-29T06:23:54.543Z,4.97
2019-04-29T06:26:25.964Z,5.30
2019-04-29T06:28:57.206Z,5.47
2019-04-29T06:31:29.082Z,5.30
2019-04-29T06:34:00.707Z,4.63
2019-04-29T06:36:33.317Z,5.40
2019-04-29T06:39:07.495Z,5.00
2019-04-29T06:41:40.505Z,4.97
2019-04-29T06:44:16.644Z,5.53
2019-04-29T06:46:45.185Z,4.90
2019-04-29T06:49:16.358Z,5.20
2019-04-29T06:51:47.937Z,5.47
2019-04-29T06:54:19.098Z,4.90
2019-04-29T06:56:50.566Z,5.17
2019-04-29T06:59:21.910Z,5.23
2019-04-29T07:01:53.534Z,5.40
2019-04-29T07:04:25.037Z,5.27
2019-04-29T07:06:57.660Z,5.30
2019-04-29T07:09:29.220Z,5.47
2019-04-29T07:12:01.576Z,5.50
2019-04-29T07:14:38.141Z,5.20
2019-04-29T07:17:07.693Z,5.47
2019-04-29T07:19:39.038Z,5.70
2019-04-29T07:22:10.384Z,6.10
2019-04-29T07:24:41.640Z,6.03
2019-04-29T07:27:12.923Z,6.20
2019-04-29T07:29:44.177Z,6.00
2019-04-29T07:32:15.366Z,6.27
2019-04-29T07:34:46.841Z,5.87
2019-04-29T07:37:18.099Z,6.20
2019-04-29T07:39:49.434Z,6.27
2019-04-29T07:42:25.005Z,6.53
2019-04-29T07:45:23.702Z,7.00
2019-04-29T07:47:56.534Z,6.87
2019-04-29T07:50:28.607Z,6.60
2019-04-29T07:52:59.928Z,6.70
2019-04-29T07:55:32.579Z,6.93
2019-04-29T07:58:04.006Z,6.50
2019-04-29T08:00:36.661Z,6.73
2019-04-29T08:03:09.600Z,6.83
2019-04-29T08:05:41.988Z,7.07
2019-04-29T08:08:16.638Z,6.77
2019-04-29T08:10:56.195Z,7.50
2019-04-29T08:13:24.901Z,7.50
2019-04-29T08:15:56.367Z,7.90
2019-04-29T08:18:27.710Z,7.43
2019-04-29T08:20:59.034Z,7.80
2019-04-29T08:23:32.578Z,7.93
2019-04-29T08:26:04.514Z,7.73
2019-04-29T08:28:35.829Z,7.83
2019-04-29T08:31:07.283Z,7.83
2019-04-29T08:33:38.577Z,7.70
2019-04-29T08:36:10.270Z,7.73
2019-04-29T08:38:41.947Z,8.00
2019-04-29T08:41:13.287Z,7.27
2019-04-29T08:44:16.038Z,7.80
2019-04-29T08:46:51.383Z,8.33
2019-04-29T08:49:17.662Z,7.37
2019-04-29T08:51:49.333Z,7.97
2019-04-29T08:54:21.395Z,7.93
2019-04-29T08:57:02.889Z,8.03
2019-04-29T08:59:25.898Z,8.17
2019-04-29T09:01:57.276Z,7.97
2019-04-29T09:04:33.354Z,8.27
2019-04-29T09:07:12.421Z,7.53
2019-04-29T09:09:35.211Z,8.00
2019-04-29T09:12:06.740Z,7.60
2019-04-29T09:14:39.125Z,7.27
2019-04-29T09:17:20.108Z,7.90
2019-04-29T09:19:44.607Z,6.97
2019-04-29T09:22:18.121Z,7.57
2019-04-29T09:25:07.223Z,6.87
2019-04-29T09:27:44.592Z,6.73
2019-04-29T09:30:15.938Z,6.53
2019-04-29T09:32:47.784Z,6.80
2019-04-29T09:35:20.110Z,7.33
2019-04-29T09:37:53.802Z,6.87
2019-04-29T09:40:26.155Z,7.03
2019-04-29T09:43:15.305Z,6.30
2019-04-29T09:45:53.855Z,5.73
2019-04-29T09:48:25.006Z,6.23
2019-04-29T09:50:56.203Z,6.00
2019-04-29T09:53:27.869Z,5.50
2019-04-29T09:55:59.462Z,5.30
2019-04-29T09:58:31.044Z,4.97
2019-04-29T10:01:28.880Z,5.97
2019-04-29T10:04:13.260Z,6.20
2019-04-29T10:06:45.836Z,5.50
2019-04-29T10:09:17.233Z,6.70
2019-04-29T10:11:48.566Z,6.33
2019-04-29T10:14:19.973Z,6.43
2019-04-29T10:17:15.329Z,5.73
2019-04-29T10:20:07.870Z,6.23
2019-04-29T10:22:38.476Z,6.03
2019-04-29T10:25:10.086Z,5.73
2019-04-29T10:27:41.610Z,6.00
2019-04-29T10:30:13.919Z,6.40
2019-04-29T10:32:45.485Z,6.20
2019-04-29T10:35:17.620Z,5.83
2019-04-29T10:37:49.043Z,5.23
2019-04-29T10:40:35.724Z,5.50
2019-04-29T10:43:27.134Z,4.93
2019-04-29T10:46:36.252Z,4.43
2019-04-29T10:49:14.210Z,4.77
2019-04-29T10:51:45.786Z,4.90
2019-04-29T10:54:17.420Z,4.70
2019-04-29T10:56:49.776Z,4.60
2019-04-29T10:59:34.992Z,4.40
2019-04-29T11:02:40.327Z,4.67
2019-04-29T11:05:59.892Z,4.70
2019-04-29T11:08:38.137Z,4.13
2019-04-29T11:11:22.749Z,4.87
2019-04-29T11:13:50.169Z,5.00
2019-04-29T11:16:22.940Z,4.80
2019-04-29T11:18:55.182Z,4.97
2019-04-29T11:21:29.451Z,4.33
2019-04-29T11:24:10.138Z,4.03
2019-04-29T11:26:55.742Z,4.43
2019-04-29T11:29:28.813Z,4.80
2019-04-29T11:32:01.840Z,4.30
2019-04-29T11:34:48.616Z,5.03
2019-04-29T11:37:19.960Z,4.80
2019-04-29T11:39:51.678Z,5.27
2019-04-29T11:42:23.493Z,5.20
2019-04-29T11:44:57.172Z,4.50
2019-04-29T11:47:27.856Z,4.63
2019-04-29T11:50:26.672Z,5.23
2019-04-29T11:52:59.776Z,5.20
2019-04-29T11:55:31.085Z,5.57
2019-04-29T11:58:08.347Z,5.60
2019-04-29T12:00:58.793Z,5.67
2019-04-29T12:03:37.478Z,5.80
2019-04-29T12:06:10.667Z,5.17
2019-04-29T12:08:42.536Z,5.20
2019-04-29T12:11:15.079Z,5.40
2019-04-29T12:14:12.133Z,5.00
2019-04-29T12:16:49.811Z,5.10
2019-04-29T12:19:26.837Z,5.00
2019-04-29T12:21:58.899Z,5.20
2019-04-29T12:24:30.312Z,4.93
2019-04-29T12:27:01.677Z,4.97
2019-04-29T12:29:33.096Z,4.90
2019-04-29T12:32:26.616Z,5.60
2019-04-29T12:35:08.662Z,5.60
2019-04-29T12:37:53.259Z,6.03
2019-04-29T12:40:45.549Z,6.80
2019-04-29T12:43:54.140Z,7.00
2019-04-29T12:46:27.599Z,5.53
2019-04-29T12:48:59.521Z,5.87
2019-04-29T12:51:32.554Z,6.60
2019-04-29T12:54:03.912Z,6.00
2019-04-29T12:56:37.359Z,6.87
2019-04-29T12:59:08.691Z,6.80
2019-04-29T13:02:02.331Z,7.43
2019-04-29T13:04:51.834Z,5.93
2019-04-29T13:07:42.996Z,6.30
2019-04-29T13:10:20.023Z,6.00
2019-04-29T13:12:51.566Z,6.47
2019-04-29T13:15:48.420Z,5.43
2019-04-29T13:18:32.883Z,4.80
2019-04-29T13:21:10.230Z,5.10
2019-04-29T13:23:55.013Z,4.50
2019-04-29T13:26:10.846Z,4.93
2019-04-29T13:28:59.002Z,4.90
2019-04-29T13:31:20.020Z,5.37
2019-04-29T13:33:52.846Z,5.23
2019-04-29T13:36:26.047Z,4.70
2019-04-29T13:38:56.962Z,5.40
2019-04-29T13:41:28.801Z,5.00
2019-04-29T13:44:05.266Z,5.37
2019-04-29T13:46:53.964Z,5.70
2019-04-29T13:49:33.510Z,5.60
2019-04-29T13:52:05.201Z,4.33
2019-04-29T13:54:37.230Z,5.00
2019-04-29T13:57:15.672Z,4.93
2019-04-29T13:59:50.615Z,5.00
2019-04-29T14:02:32.314Z,5.10
2019-04-29T14:05:03.393Z,4.43
2019-04-29T14:07:34.726Z,5.33
2019-04-29T14:10:10.227Z,5.20
2019-04-29T14:12:48.815Z,5.30
2019-04-29T14:15:14.873Z,5.40
2019-04-29T14:17:46.506Z,5.10
2019-04-29T14:20:18.234Z,5.60
2019-04-29T14:22:49.488Z,6.00
2019-04-29T14:25:20.760Z,5.67
2019-04-29T14:27:52.186Z,6.10
2019-04-29T14:30:38.032Z,6.47
2019-04-29T14:33:01.915Z,6.17
2019-04-29T14:35:39.264Z,5.87
2019-04-29T14:38:10.449Z,5.83
2019-04-29T14:40:42.783Z,6.37
2019-04-29T14:43:28.706Z,6.23
2019-04-29T14:46:16.295Z,6.00
2019-04-29T14:49:11.496Z,6.40
2019-04-29T14:51:42.851Z,8.33
2019-04-29T14:54:14.245Z,10.27
2019-04-29T14:56:45.576Z,6.40
2019-04-29T14:59:17.371Z,9.93
2019-04-29T15:01:54.273Z,8.87
2019-04-29T15:04:28.447Z,8.03
2019-04-29T15:06:59.931Z,8.53
2019-04-29T15:09:31.336Z,9.20
2019-04-29T15:12:21.858Z,7.73
2019-04-29T15:15:05.854Z,8.80
2019-04-29T15:17:47.821Z,8.57
2019-04-29T15:20:30.018Z,8.77
2019-04-29T15:23:02.250Z,8.60
2019-04-29T15:25:33.468Z,8.57
2019-04-29T15:28:04.993Z,7.73
2019-04-29T15:30:37.133Z,8.43
2019-04-29T15:33:09.442Z,8.57
2019-04-29T15:35:40.696Z,8.63
2019-04-29T15:38:12.026Z,9.00
2019-04-29T15:40:43.466Z,9.83
2019-04-29T15:43:17.880Z,9.20
2019-04-29T15:45:47.893Z,8.90
2019-04-29T15:48:19.146Z,8.83
2019-04-29T15:50:50.506Z,9.10
2019-04-29T15:53:22.027Z,10.43
2019-04-29T15:56:06.205Z,10.33
2019-04-29T15:58:27.757Z,8.83
2019-04-29T16:01:13.027Z,10.53
2019-04-29T16:03:37.084Z,10.63
2019-04-29T16:09:04.578Z,10.27
2019-04-29T16:14:39.175Z,9.30
2019-04-29T16:17:10.500Z,8.83
2019-04-29T16:19:41.667Z,8.67
2019-04-29T16:22:19.820Z,8.83
2019-04-29T16:24:46.072Z,9.50
2019-04-29T16:27:17.672Z,10.00
2019-04-29T16:29:51.583Z,9.90
2019-04-29T16:32:31.469Z,9.43
2019-04-29T16:35:03.048Z,8.70
2019-04-29T16:37:34.799Z,9.50
2019-04-29T16:40:07.268Z,9.23
2019-04-29T16:42:45.752Z,9.07
2019-04-29T16:45:17.548Z,7.33
2019-04-29T16:47:49.320Z,7.70
2019-04-29T16:50:20.649Z,8.83
2019-04-29T16:52:52.202Z,8.47
2019-04-29T16:55:23.747Z,8.00
2019-04-29T16:57:59.656Z,6.93
2019-04-29T17:00:32.023Z,7.10
2019-04-29T17:03:03.469Z,7.17
2019-04-29T17:05:35.967Z,6.23
2019-04-29T17:08:09.263Z,6.77
2019-04-29T17:11:03.851Z,5.93
2019-04-29T17:13:35.106Z,6.77
2019-04-29T17:16:08.709Z,6.07
2019-04-29T17:18:40.033Z,6.83
2019-04-29T17:21:11.804Z,6.73
2019-04-29T17:23:43.315Z,7.43
2019-04-29T17:26:14.578Z,7.17
2019-04-29T17:29:37.912Z,6.87
2019-04-29T17:32:21.365Z,8.00
2019-04-29T17:34:59.608Z,8.07
2019-04-29T17:35:13.991Z,9.13
2019-04-29T17:35:15.559Z,9.67
2019-04-29T17:37:26.592Z,8.63
2019-04-29T17:39:58.201Z,7.70
2019-04-29T17:42:31.200Z,8.07
2019-04-29T17:45:10.577Z,8.77
2019-04-29T17:47:52.443Z,8.23
2019-04-29T17:50:38.482Z,7.90
2019-04-29T17:53:17.553Z,7.87
2019-04-29T17:55:58.190Z,7.27
2019-04-29T17:58:37.084Z,8.07
2019-04-29T18:01:26.278Z,7.63
2019-04-29T18:04:11.781Z,8.40
2019-04-29T18:06:49.890Z,8.03
2019-04-29T18:09:47.488Z,7.67
2019-04-29T18:12:22.180Z,8.97
2019-04-29T18:14:55.102Z,8.40
2019-04-29T18:17:31.431Z,8.17
2019-04-29T18:20:32.870Z,7.07
2019-04-29T18:23:11.114Z,6.00
2019-04-29T18:25:56.929Z,6.60
2019-04-29T18:28:29.287Z,6.40
2019-04-29T18:31:00.633Z,7.10
2019-04-29T18:33:31.927Z,6.23
2019-04-29T18:36:06.378Z,6.17
2019-04-29T18:38:36.676Z,7.30
2019-04-29T18:41:08.588Z,6.60
2019-04-29T18:43:39.976Z,6.43
2019-04-29T18:46:12.757Z,6.57
2019-04-29T18:48:45.711Z,7.00
2019-04-29T18:51:20.892Z,7.10
2019-04-29T18:53:50.293Z,7.33
2019-04-29T18:56:21.529Z,7.70
2019-04-29T18:58:52.817Z,6.90
2019-04-29T19:01:28.996Z,7.27
2019-04-29T19:04:07.377Z,9.20
2019-04-29T19:06:36.202Z,7.73
2019-04-29T19:09:17.476Z,6.57
2019-04-29T19:11:42.996Z,6.23
2019-04-29T19:14:15.118Z,7.10
2019-04-29T19:16:46.541Z,6.90
2019-04-29T19:19:18.862Z,7.53
2019-04-29T19:21:50.219Z,8.33
2019-04-29T19:24:21.743Z,8.50
2019-04-29T19:26:55.683Z,8.13
2019-04-29T19:29:26.288Z,7.67
2019-04-29T19:31:57.698Z,7.17
2019-04-29T19:34:39.981Z,7.37
2019-04-29T19:37:02.737Z,8.40
2019-04-29T19:39:34.976Z,10.20
2019-04-29T19:42:06.665Z,8.87
2019-04-29T19:44:38.036Z,7.80
2019-04-29T19:47:10.850Z,9.03
2019-04-29T19:49:44.711Z,8.17
2019-04-29T19:52:18.783Z,8.43
2019-04-29T19:54:49.124Z,8.47
2019-04-29T19:57:20.566Z,8.30
2019-04-29T19:59:54.292Z,7.80
2019-04-29T20:02:26.149Z,7.70
2019-04-29T20:05:08.401Z,8.00
2019-04-29T20:07:42.325Z,8.03
2019-04-29T20:10:14.982Z,8.33
2019-04-29T20:12:53.304Z,7.97
2019-04-29T20:15:20.486Z,8.10
2019-04-29T20:18:09.885Z,7.70
2019-04-29T20:20:51.162Z,7.97
2019-04-29T20:23:26.353Z,8.07
2019-04-29T20:26:05.777Z,8.60
2019-04-29T20:28:29.292Z,7.70
2019-04-29T20:31:15.500Z,7.07
2019-04-29T20:33:33.914Z,7.70
2019-04-29T20:36:06.163Z,8.23
2019-04-29T20:38:39.075Z,8.70
2019-04-29T20:41:12.943Z,9.43
2019-04-29T20:43:45.903Z,8.37
2019-04-29T20:46:18.074Z,9.27
2019-04-29T20:48:50.510Z,9.03
2019-04-29T20:51:27.404Z,9.30
2019-04-29T20:54:09.094Z,9.30
2019-04-29T20:56:41.588Z,9.33
2019-04-29T20:59:15.330Z,9.67
2019-04-29T21:01:50.968Z,9.30
2019-04-29T21:04:32.012Z,9.87
2019-04-29T21:07:00.532Z,10.80
2019-04-29T21:09:30.167Z,10.50
2019-04-29T21:12:25.462Z,9.63
2019-04-29T21:14:59.616Z,11.33
2019-04-29T21:17:31.957Z,11.23
2019-04-29T21:20:03.321Z,11.20
2019-04-29T21:22:35.676Z,12.57
2019-04-29T21:25:07.964Z,12.80
2019-04-29T21:27:39.289Z,12.80
2019-04-29T21:30:11.293Z,11.77
2019-04-29T21:32:42.456Z,11.73
2019-04-29T21:35:23.105Z,12.37
2019-04-29T21:38:17.808Z,12.57
2019-04-29T21:40:56.032Z,12.67
2019-04-29T21:43:28.845Z,12.53
2019-04-29T21:46:00.503Z,12.60
2019-04-29T21:48:33.776Z,12.73
2019-04-29T21:51:06.868Z,12.43
2019-04-29T21:53:40.265Z,13.57
2019-04-29T21:56:11.096Z,14.30
2019-04-29T21:58:42.397Z,15.43
2019-04-29T22:01:15.315Z,15.20
2019-04-29T22:03:48.818Z,15.27
2019-04-29T22:06:20.535Z,14.43
2019-04-29T22:08:54.236Z,14.83
2019-04-29T22:11:25.722Z,15.07
2019-04-29T22:13:57.394Z,13.83
2019-04-29T22:16:28.739Z,15.50
2019-04-29T22:19:00.127Z,16.90
2019-04-29T22:21:31.777Z,16.10
2019-04-29T22:24:03.036Z,16.30
2019-04-29T22:26:35.018Z,16.20
2019-04-29T22:29:06.791Z,16.50
2019-04-29T22:31:38.613Z,15.47
2019-04-29T22:34:15.120Z,16.60
2019-04-29T22:36:43.019Z,15.47
2019-04-29T22:39:15.851Z,15.50
2019-04-29T22:42:18.213Z,15.47
2019-04-29T22:44:52.572Z,15.27
2019-04-29T22:47:23.942Z,16.10
2019-04-29T22:49:58.697Z,16.70
2019-04-29T22:52:29.860Z,15.60
2019-04-29T22:55:02.548Z,16.63
2019-04-29T22:57:34.106Z,16.67
2019-04-29T23:00:06.979Z,17.57
2019-04-29T23:02:39.775Z,17.03
2019-04-29T23:05:11.485Z,17.23
2019-04-29T23:07:42.797Z,17.10
2019-04-29T23:10:19.712Z,16.83
2019-04-29T23:12:49.255Z,19.20
2019-04-29T23:15:23.509Z,17.23
2019-04-29T23:17:54.045Z,18.23
2019-04-29T23:20:47.233Z,18.47
2019-04-29T23:23:27.298Z,18.73
2019-04-29T23:25:59.959Z,19.07
2019-04-29T23:28:29.859Z,18.57
2019-04-29T23:31:01.428Z,18.00
2019-04-29T23:33:35.981Z,18.83
2019-04-29T23:36:09.598Z,19.90
2019-04-29T23:38:42.706Z,19.53
2019-04-29T23:41:15.306Z,18.30
2019-04-29T23:43:46.805Z,18.67
2019-04-29T23:46:18.049Z,19.40
2019-04-29T23:48:49.306Z,19.53
2019-04-29T23:51:20.533Z,19.27
2019-04-29T23:53:51.705Z,19.23
2019-04-29T23:56:24.636Z,19.80
2019-04-29T23:59:01.538Z,19.90
